sensor_id;sensor_type;location;lat;lon;timestamp;temperature;humidity
26053;DHT22;13826;51.186;4.450;2022-08-19T00:01:45;20.60;1.00
26053;DHT22;13826;51.186;4.450;2022-08-19T00:04:13;20.60;1.00
26053;DHT22;13826;51.186;4.450;2022-08-19T00:06:42;20.50;1.00
26053;DHT22;13826;51.186;4.450;2022-08-19T00:09:11;20.50;1.00
26053;DHT22;13826;51.186;4.450;2022-08-19T00:11:38;20.50;1.00
26053;DHT22;13826;51.186;4.450;2022-08-19T00:14:05;20.50;1.00
26053;DHT22;13826;51.186;4.450;2022-08-19T00:16:31;20.50;1.00
26053;DHT22;13826;51.186;4.450;2022-08-19T00:18:57;20.50;1.00
26053;DHT22;13826;51.186;4.450;2022-08-19T00:21:24;20.40;1.00
26053;DHT22;13826;51.186;4.450;2022-08-19T00:23:51;20.40;1.00
26053;DHT22;13826;51.186;4.450;2022-08-19T00:26:17;20.30;1.00
26053;DHT22;13826;51.186;4.450;2022-08-19T00:28:42;20.20;1.00
26053;DHT22;13826;51.186;4.450;2022-08-19T00:31:08;20.10;1.00
26053;DHT22;13826;51.186;4.450;2022-08-19T00:33:35;20.00;1.00
26053;DHT22;13826;51.186;4.450;2022-08-19T00:36:03;20.00;1.00
26053;DHT22;13826;51.186;4.450;2022-08-19T00:38:30;20.00;1.00
26053;DHT22;13826;51.186;4.450;2022-08-19T00:40:56;20.10;1.00
26053;DHT22;13826;51.186;4.450;2022-08-19T00:43:25;20.10;1.00
26053;DHT22;13826;51.186;4.450;2022-08-19T00:45:52;20.00;1.00
26053;DHT22;13826;51.186;4.450;2022-08-19T00:48:19;19.90;1.00
26053;DHT22;13826;51.186;4.450;2022-08-19T00:50:48;19.90;1.00
26053;DHT22;13826;51.186;4.450;2022-08-19T00:53:18;20.00;1.00
26053;DHT22;13826;51.186;4.450;2022-08-19T00:55:48;20.00;1.00
26053;DHT22;13826;51.186;4.450;2022-08-19T00:58:19;20.00;1.00
26053;DHT22;13826;51.186;4.450;2022-08-19T01:00:45;19.90;1.00
26053;DHT22;13826;51.186;4.450;2022-08-19T01:03:15;19.90;1.00
26053;DHT22;13826;51.186;4.450;2022-08-19T01:05:43;19.90;1.00
26053;DHT22;13826;51.186;4.450;2022-08-19T01:08:10;19.90;1.00
26053;DHT22;13826;51.186;4.450;2022-08-19T01:10:40;19.90;1.00
26053;DHT22;13826;51.186;4.450;2022-08-19T01:13:07;19.90;1.00
26053;DHT22;13826;51.186;4.450;2022-08-19T01:15:41;19.90;1.00
26053;DHT22;13826;51.186;4.450;2022-08-19T01:18:12;19.90;1.00
26053;DHT22;13826;51.186;4.450;2022-08-19T01:20:39;19.90;1.00
26053;DHT22;13826;51.186;4.450;2022-08-19T01:23:05;19.90;1.00
26053;DHT22;13826;51.186;4.450;2022-08-19T01:25:35;19.90;1.00
26053;DHT22;13826;51.186;4.450;2022-08-19T01:28:01;20.00;1.00
26053;DHT22;13826;51.186;4.450;2022-08-19T01:30:32;19.90;1.00
26053;DHT22;13826;51.186;4.450;2022-08-19T01:32:58;19.90;1.00
26053;DHT22;13826;51.186;4.450;2022-08-19T01:35:29;19.90;1.00
26053;DHT22;13826;51.186;4.450;2022-08-19T01:37:59;19.90;1.00
26053;DHT22;13826;51.186;4.450;2022-08-19T01:40:28;19.80;1.00
26053;DHT22;13826;51.186;4.450;2022-08-19T01:42:54;19.70;1.00
26053;DHT22;13826;51.186;4.450;2022-08-19T01:45:22;19.80;1.00
26053;DHT22;13826;51.186;4.450;2022-08-19T01:47:49;19.80;1.00
26053;DHT22;13826;51.186;4.450;2022-08-19T01:50:15;19.80;1.00
26053;DHT22;13826;51.186;4.450;2022-08-19T01:52:42;19.80;1.00
26053;DHT22;13826;51.186;4.450;2022-08-19T01:55:12;19.80;1.00
26053;DHT22;13826;51.186;4.450;2022-08-19T01:57:39;19.70;1.00
26053;DHT22;13826;51.186;4.450;2022-08-19T02:00:09;19.70;1.00
26053;DHT22;13826;51.186;4.450;2022-08-19T02:02:36;19.70;1.00
26053;DHT22;13826;51.186;4.450;2022-08-19T02:05:01;19.70;1.00
26053;DHT22;13826;51.186;4.450;2022-08-19T02:07:27;19.70;1.00
26053;DHT22;13826;51.186;4.450;2022-08-19T02:09:54;19.70;1.00
26053;DHT22;13826;51.186;4.450;2022-08-19T02:12:21;19.70;1.00
26053;DHT22;13826;51.186;4.450;2022-08-19T02:14:47;19.70;1.00
26053;DHT22;13826;51.186;4.450;2022-08-19T02:17:13;19.70;1.00
26053;DHT22;13826;51.186;4.450;2022-08-19T02:19:39;19.80;1.00
26053;DHT22;13826;51.186;4.450;2022-08-19T02:22:05;19.70;1.00
26053;DHT22;13826;51.186;4.450;2022-08-19T02:24:31;19.80;1.00
26053;DHT22;13826;51.186;4.450;2022-08-19T02:26:57;19.80;1.00
26053;DHT22;13826;51.186;4.450;2022-08-19T02:29:24;19.60;1.00
26053;DHT22;13826;51.186;4.450;2022-08-19T02:31:50;19.60;1.00
26053;DHT22;13826;51.186;4.450;2022-08-19T02:34:17;19.50;1.00
26053;DHT22;13826;51.186;4.450;2022-08-19T02:36:42;19.60;1.00
26053;DHT22;13826;51.186;4.450;2022-08-19T02:39:09;19.50;1.00
26053;DHT22;13826;51.186;4.450;2022-08-19T02:41:35;19.50;1.00
26053;DHT22;13826;51.186;4.450;2022-08-19T02:44:02;19.50;1.00
26053;DHT22;13826;51.186;4.450;2022-08-19T02:46:32;19.50;1.00
26053;DHT22;13826;51.186;4.450;2022-08-19T02:49:01;19.40;1.00
26053;DHT22;13826;51.186;4.450;2022-08-19T02:51:33;19.40;1.00
26053;DHT22;13826;51.186;4.450;2022-08-19T02:54:00;19.40;1.00
26053;DHT22;13826;51.186;4.450;2022-08-19T02:56:26;19.40;1.00
26053;DHT22;13826;51.186;4.450;2022-08-19T02:58:54;19.30;1.00
26053;DHT22;13826;51.186;4.450;2022-08-19T03:01:31;19.40;1.00
26053;DHT22;13826;51.186;4.450;2022-08-19T03:03:59;19.30;1.00
26053;DHT22;13826;51.186;4.450;2022-08-19T03:06:25;19.20;1.00
26053;DHT22;13826;51.186;4.450;2022-08-19T03:08:52;19.10;1.00
26053;DHT22;13826;51.186;4.450;2022-08-19T03:11:19;19.10;1.00
26053;DHT22;13826;51.186;4.450;2022-08-19T03:13:46;19.10;1.00
26053;DHT22;13826;51.186;4.450;2022-08-19T03:16:14;19.00;1.00
26053;DHT22;13826;51.186;4.450;2022-08-19T03:18:40;19.00;1.00
26053;DHT22;13826;51.186;4.450;2022-08-19T03:21:06;19.10;1.00
26053;DHT22;13826;51.186;4.450;2022-08-19T03:23:32;19.10;1.00
26053;DHT22;13826;51.186;4.450;2022-08-19T03:25:58;19.10;1.00
26053;DHT22;13826;51.186;4.450;2022-08-19T03:28:24;19.10;1.00
26053;DHT22;13826;51.186;4.450;2022-08-19T03:30:59;19.10;1.00
26053;DHT22;13826;51.186;4.450;2022-08-19T03:33:26;19.10;1.00
26053;DHT22;13826;51.186;4.450;2022-08-19T03:36:10;19.00;1.00
26053;DHT22;13826;51.186;4.450;2022-08-19T03:38:38;19.00;1.00
26053;DHT22;13826;51.186;4.450;2022-08-19T03:41:05;19.00;1.00
26053;DHT22;13826;51.186;4.450;2022-08-19T03:43:33;19.00;1.00
26053;DHT22;13826;51.186;4.450;2022-08-19T03:46:11;18.90;1.00
26053;DHT22;13826;51.186;4.450;2022-08-19T03:48:39;18.80;1.00
26053;DHT22;13826;51.186;4.450;2022-08-19T03:51:07;18.70;1.00
26053;DHT22;13826;51.186;4.450;2022-08-19T03:53:34;18.80;1.00
26053;DHT22;13826;51.186;4.450;2022-08-19T03:56:01;18.60;1.00
26053;DHT22;13826;51.186;4.450;2022-08-19T03:58:28;18.60;1.30
26053;DHT22;13826;51.186;4.450;2022-08-19T04:00:55;18.60;1.00
26053;DHT22;13826;51.186;4.450;2022-08-19T04:03:22;18.70;1.00
26053;DHT22;13826;51.186;4.450;2022-08-19T04:05:48;18.70;1.00
26053;DHT22;13826;51.186;4.450;2022-08-19T04:08:14;18.70;1.00
26053;DHT22;13826;51.186;4.450;2022-08-19T04:10:43;18.70;1.00
26053;DHT22;13826;51.186;4.450;2022-08-19T04:13:09;18.60;1.00
26053;DHT22;13826;51.186;4.450;2022-08-19T04:15:42;18.70;1.00
26053;DHT22;13826;51.186;4.450;2022-08-19T04:18:09;18.50;1.80
26053;DHT22;13826;51.186;4.450;2022-08-19T04:20:53;18.40;6.50
26053;DHT22;13826;51.186;4.450;2022-08-19T04:23:19;18.50;6.90
26053;DHT22;13826;51.186;4.450;2022-08-19T04:25:45;18.50;5.20
26053;DHT22;13826;51.186;4.450;2022-08-19T04:28:12;18.40;4.40
26053;DHT22;13826;51.186;4.450;2022-08-19T04:30:40;18.40;6.70
26053;DHT22;13826;51.186;4.450;2022-08-19T04:33:06;18.40;7.70
26053;DHT22;13826;51.186;4.450;2022-08-19T04:35:42;18.40;10.10
26053;DHT22;13826;51.186;4.450;2022-08-19T04:38:09;18.30;12.40
26053;DHT22;13826;51.186;4.450;2022-08-19T04:40:41;18.30;11.70
26053;DHT22;13826;51.186;4.450;2022-08-19T04:43:25;18.40;11.20
26053;DHT22;13826;51.186;4.450;2022-08-19T04:45:51;18.40;9.90
26053;DHT22;13826;51.186;4.450;2022-08-19T04:48:17;18.40;6.70
26053;DHT22;13826;51.186;4.450;2022-08-19T04:50:52;18.50;4.30
26053;DHT22;13826;51.186;4.450;2022-08-19T04:53:27;18.50;2.00
26053;DHT22;13826;51.186;4.450;2022-08-19T04:55:57;18.50;2.40
26053;DHT22;13826;51.186;4.450;2022-08-19T04:58:26;18.50;2.90
26053;DHT22;13826;51.186;4.450;2022-08-19T05:00:52;18.50;1.10
26053;DHT22;13826;51.186;4.450;2022-08-19T05:03:18;18.50;1.70
26053;DHT22;13826;51.186;4.450;2022-08-19T05:05:45;18.60;1.00
26053;DHT22;13826;51.186;4.450;2022-08-19T05:08:16;18.60;1.00
26053;DHT22;13826;51.186;4.450;2022-08-19T05:10:47;18.60;1.00
26053;DHT22;13826;51.186;4.450;2022-08-19T05:13:13;18.60;1.00
26053;DHT22;13826;51.186;4.450;2022-08-19T05:15:40;18.70;1.00
26053;DHT22;13826;51.186;4.450;2022-08-19T05:18:06;18.80;1.00
26053;DHT22;13826;51.186;4.450;2022-08-19T05:20:50;18.90;1.00
26053;DHT22;13826;51.186;4.450;2022-08-19T05:23:34;18.90;1.00
26053;DHT22;13826;51.186;4.450;2022-08-19T05:25:59;18.90;1.00
26053;DHT22;13826;51.186;4.450;2022-08-19T05:28:25;19.00;1.00
26053;DHT22;13826;51.186;4.450;2022-08-19T05:30:51;19.20;1.00
26053;DHT22;13826;51.186;4.450;2022-08-19T05:33:17;19.20;1.00
26053;DHT22;13826;51.186;4.450;2022-08-19T05:35:43;19.30;1.00
26053;DHT22;13826;51.186;4.450;2022-08-19T05:38:10;19.40;1.00
26053;DHT22;13826;51.186;4.450;2022-08-19T05:40:37;19.50;1.00
26053;DHT22;13826;51.186;4.450;2022-08-19T05:43:05;20.00;1.00
26053;DHT22;13826;51.186;4.450;2022-08-19T05:45:31;20.70;1.00
26053;DHT22;13826;51.186;4.450;2022-08-19T05:47:57;21.50;1.00
26053;DHT22;13826;51.186;4.450;2022-08-19T05:50:24;22.60;99.90
26053;DHT22;13826;51.186;4.450;2022-08-19T05:52:52;23.50;1.00
26053;DHT22;13826;51.186;4.450;2022-08-19T05:55:18;24.30;1.00
26053;DHT22;13826;51.186;4.450;2022-08-19T05:57:46;25.20;94.70
26053;DHT22;13826;51.186;4.450;2022-08-19T06:00:12;25.70;99.90
26053;DHT22;13826;51.186;4.450;2022-08-19T06:02:41;26.30;99.90
26053;DHT22;13826;51.186;4.450;2022-08-19T06:05:07;25.90;99.90
26053;DHT22;13826;51.186;4.450;2022-08-19T06:07:35;25.70;99.90
26053;DHT22;13826;51.186;4.450;2022-08-19T06:10:01;25.60;1.00
26053;DHT22;13826;51.186;4.450;2022-08-19T06:12:31;25.20;1.00
26053;DHT22;13826;51.186;4.450;2022-08-19T06:15:17;24.80;1.00
26053;DHT22;13826;51.186;4.450;2022-08-19T06:17:43;24.30;1.00
26053;DHT22;13826;51.186;4.450;2022-08-19T06:20:14;23.60;99.90
26053;DHT22;13826;51.186;4.450;2022-08-19T06:22:42;23.30;99.90
26053;DHT22;13826;51.186;4.450;2022-08-19T06:25:09;23.40;99.90
26053;DHT22;13826;51.186;4.450;2022-08-19T06:27:35;23.30;1.00
26053;DHT22;13826;51.186;4.450;2022-08-19T06:30:02;23.00;1.00
26053;DHT22;13826;51.186;4.450;2022-08-19T06:32:28;22.90;1.00
26053;DHT22;13826;51.186;4.450;2022-08-19T06:34:54;22.30;99.90
26053;DHT22;13826;51.186;4.450;2022-08-19T06:37:20;22.10;99.90
26053;DHT22;13826;51.186;4.450;2022-08-19T06:39:47;22.20;99.90
26053;DHT22;13826;51.186;4.450;2022-08-19T06:42:13;22.10;99.90
26053;DHT22;13826;51.186;4.450;2022-08-19T06:44:43;21.80;99.90
26053;DHT22;13826;51.186;4.450;2022-08-19T06:47:13;21.80;1.00
26053;DHT22;13826;51.186;4.450;2022-08-19T06:49:39;21.80;1.00
26053;DHT22;13826;51.186;4.450;2022-08-19T06:52:05;21.60;1.00
26053;DHT22;13826;51.186;4.450;2022-08-19T06:54:31;21.80;1.00
26053;DHT22;13826;51.186;4.450;2022-08-19T06:56:59;21.90;1.00
26053;DHT22;13826;51.186;4.450;2022-08-19T06:59:28;21.90;1.00
26053;DHT22;13826;51.186;4.450;2022-08-19T07:01:59;21.80;1.00
26053;DHT22;13826;51.186;4.450;2022-08-19T07:04:28;21.90;1.00
26053;DHT22;13826;51.186;4.450;2022-08-19T07:07:07;22.00;1.00
26053;DHT22;13826;51.186;4.450;2022-08-19T07:09:36;22.60;99.90
26053;DHT22;13826;51.186;4.450;2022-08-19T07:12:06;22.80;99.90
26053;DHT22;13826;51.186;4.450;2022-08-19T07:14:33;23.50;1.00
26053;DHT22;13826;51.186;4.450;2022-08-19T07:17:06;23.90;99.90
26053;DHT22;13826;51.186;4.450;2022-08-19T07:19:32;23.80;1.00
26053;DHT22;13826;51.186;4.450;2022-08-19T07:21:58;23.50;1.00
26053;DHT22;13826;51.186;4.450;2022-08-19T07:24:26;23.20;1.00
26053;DHT22;13826;51.186;4.450;2022-08-19T07:26:56;23.00;1.00
26053;DHT22;13826;51.186;4.450;2022-08-19T07:29:26;22.90;99.90
26053;DHT22;13826;51.186;4.450;2022-08-19T07:31:53;22.70;99.90
26053;DHT22;13826;51.186;4.450;2022-08-19T07:34:22;22.70;99.90
26053;DHT22;13826;51.186;4.450;2022-08-19T07:36:49;22.70;99.90
26053;DHT22;13826;51.186;4.450;2022-08-19T07:39:20;22.80;99.90
26053;DHT22;13826;51.186;4.450;2022-08-19T07:41:47;23.20;99.90
26053;DHT22;13826;51.186;4.450;2022-08-19T07:44:14;23.40;99.90
26053;DHT22;13826;51.186;4.450;2022-08-19T07:46:44;23.30;99.90
26053;DHT22;13826;51.186;4.450;2022-08-19T07:49:11;23.60;99.90
26053;DHT22;13826;51.186;4.450;2022-08-19T07:51:51;23.40;99.90
26053;DHT22;13826;51.186;4.450;2022-08-19T07:54:19;23.40;99.90
26053;DHT22;13826;51.186;4.450;2022-08-19T07:56:45;23.50;67.70
26053;DHT22;13826;51.186;4.450;2022-08-19T07:59:11;23.50;99.90
26053;DHT22;13826;51.186;4.450;2022-08-19T08:01:37;23.50;99.90
26053;DHT22;13826;51.186;4.450;2022-08-19T08:04:06;23.50;99.90
26053;DHT22;13826;51.186;4.450;2022-08-19T08:06:52;23.30;99.90
26053;DHT22;13826;51.186;4.450;2022-08-19T08:09:40;23.20;99.90
26053;DHT22;13826;51.186;4.450;2022-08-19T08:12:10;23.30;99.90
26053;DHT22;13826;51.186;4.450;2022-08-19T08:14:44;23.40;99.90
26053;DHT22;13826;51.186;4.450;2022-08-19T08:17:13;23.40;99.90
26053;DHT22;13826;51.186;4.450;2022-08-19T08:19:40;23.80;99.90
26053;DHT22;13826;51.186;4.450;2022-08-19T08:22:10;23.80;99.90
26053;DHT22;13826;51.186;4.450;2022-08-19T08:25:15;23.90;99.90
26053;DHT22;13826;51.186;4.450;2022-08-19T08:27:43;24.10;1.00
26053;DHT22;13826;51.186;4.450;2022-08-19T08:30:15;24.30;1.00
26053;DHT22;13826;51.186;4.450;2022-08-19T08:32:42;24.20;1.00
26053;DHT22;13826;51.186;4.450;2022-08-19T08:35:11;24.00;28.10
26053;DHT22;13826;51.186;4.450;2022-08-19T08:37:37;24.20;1.00
26053;DHT22;13826;51.186;4.450;2022-08-19T08:40:16;24.50;1.00
26053;DHT22;13826;51.186;4.450;2022-08-19T08:42:54;24.60;1.00
26053;DHT22;13826;51.186;4.450;2022-08-19T08:45:27;24.50;99.90
26053;DHT22;13826;51.186;4.450;2022-08-19T08:47:57;24.40;1.00
26053;DHT22;13826;51.186;4.450;2022-08-19T08:50:44;24.50;1.00
26053;DHT22;13826;51.186;4.450;2022-08-19T08:53:14;24.70;99.90
26053;DHT22;13826;51.186;4.450;2022-08-19T08:55:41;24.60;99.90
26053;DHT22;13826;51.186;4.450;2022-08-19T08:58:26;24.60;99.90
26053;DHT22;13826;51.186;4.450;2022-08-19T09:00:53;24.30;99.90
26053;DHT22;13826;51.186;4.450;2022-08-19T09:03:21;24.00;99.90
26053;DHT22;13826;51.186;4.450;2022-08-19T09:10:53;23.60;99.90
26053;DHT22;13826;51.186;4.450;2022-08-19T09:13:44;23.50;99.90
26053;DHT22;13826;51.186;4.450;2022-08-19T09:16:19;23.50;99.90
26053;DHT22;13826;51.186;4.450;2022-08-19T09:18:49;23.50;99.90
26053;DHT22;13826;51.186;4.450;2022-08-19T09:21:18;23.70;99.90
26053;DHT22;13826;51.186;4.450;2022-08-19T09:23:44;24.00;99.90
26053;DHT22;13826;51.186;4.450;2022-08-19T09:26:15;23.80;99.90
26053;DHT22;13826;51.186;4.450;2022-08-19T09:28:42;23.90;99.90
26053;DHT22;13826;51.186;4.450;2022-08-19T09:31:12;24.00;99.90
26053;DHT22;13826;51.186;4.450;2022-08-19T09:33:39;24.10;99.90
26053;DHT22;13826;51.186;4.450;2022-08-19T09:36:07;24.10;99.90
26053;DHT22;13826;51.186;4.450;2022-08-19T09:38:33;24.10;99.90
26053;DHT22;13826;51.186;4.450;2022-08-19T09:41:08;24.00;99.90
26053;DHT22;13826;51.186;4.450;2022-08-19T09:43:34;24.00;99.90
26053;DHT22;13826;51.186;4.450;2022-08-19T09:46:03;23.60;99.90
26053;DHT22;13826;51.186;4.450;2022-08-19T09:48:32;23.30;1.00
26053;DHT22;13826;51.186;4.450;2022-08-19T09:51:13;23.40;1.00
26053;DHT22;13826;51.186;4.450;2022-08-19T09:53:44;23.50;1.00
26053;DHT22;13826;51.186;4.450;2022-08-19T09:56:11;23.50;1.00
26053;DHT22;13826;51.186;4.450;2022-08-19T09:58:37;23.40;1.00
26053;DHT22;13826;51.186;4.450;2022-08-19T10:01:04;23.70;1.00
26053;DHT22;13826;51.186;4.450;2022-08-19T10:03:31;23.90;99.90
26053;DHT22;13826;51.186;4.450;2022-08-19T10:06:02;23.80;99.90
26053;DHT22;13826;51.186;4.450;2022-08-19T10:08:34;23.80;99.90
26053;DHT22;13826;51.186;4.450;2022-08-19T10:11:01;23.70;99.90
26053;DHT22;13826;51.186;4.450;2022-08-19T10:13:28;23.90;99.90
26053;DHT22;13826;51.186;4.450;2022-08-19T10:15:56;24.20;99.90
26053;DHT22;13826;51.186;4.450;2022-08-19T10:18:27;24.50;99.90
26053;DHT22;13826;51.186;4.450;2022-08-19T10:21:01;24.50;99.90
26053;DHT22;13826;51.186;4.450;2022-08-19T10:23:27;24.40;96.60
26053;DHT22;13826;51.186;4.450;2022-08-19T10:26:00;24.20;99.90
26053;DHT22;13826;51.186;4.450;2022-08-19T10:28:25;24.20;99.90
26053;DHT22;13826;51.186;4.450;2022-08-19T10:30:51;24.30;99.90
26053;DHT22;13826;51.186;4.450;2022-08-19T10:33:17;24.70;99.90
26053;DHT22;13826;51.186;4.450;2022-08-19T10:35:43;24.80;24.90
26053;DHT22;13826;51.186;4.450;2022-08-19T10:38:09;24.80;1.00
26053;DHT22;13826;51.186;4.450;2022-08-19T10:40:35;24.90;1.00
26053;DHT22;13826;51.186;4.450;2022-08-19T10:43:01;25.10;1.00
26053;DHT22;13826;51.186;4.450;2022-08-19T10:45:26;25.10;99.90
26053;DHT22;13826;51.186;4.450;2022-08-19T10:47:53;25.20;99.90
26053;DHT22;13826;51.186;4.450;2022-08-19T10:50:18;25.10;1.00
26053;DHT22;13826;51.186;4.450;2022-08-19T10:53:07;25.20;99.90
26053;DHT22;13826;51.186;4.450;2022-08-19T10:55:36;25.40;1.00
26053;DHT22;13826;51.186;4.450;2022-08-19T10:58:21;25.30;1.00
26053;DHT22;13826;51.186;4.450;2022-08-19T11:00:57;24.90;99.90
26053;DHT22;13826;51.186;4.450;2022-08-19T11:03:25;25.00;99.90
26053;DHT22;13826;51.186;4.450;2022-08-19T11:06:04;24.90;1.00
26053;DHT22;13826;51.186;4.450;2022-08-19T11:08:31;24.90;1.00
26053;DHT22;13826;51.186;4.450;2022-08-19T11:11:00;25.10;99.90
26053;DHT22;13826;51.186;4.450;2022-08-19T11:13:32;25.00;99.90
26053;DHT22;13826;51.186;4.450;2022-08-19T11:16:12;25.30;67.50
26053;DHT22;13826;51.186;4.450;2022-08-19T11:18:42;25.50;99.90
26053;DHT22;13826;51.186;4.450;2022-08-19T11:21:20;25.70;99.90
26053;DHT22;13826;51.186;4.450;2022-08-19T11:23:48;26.00;99.90
26053;DHT22;13826;51.186;4.450;2022-08-19T11:26:15;26.10;99.90
26053;DHT22;13826;51.186;4.450;2022-08-19T11:28:42;26.20;1.00
26053;DHT22;13826;51.186;4.450;2022-08-19T11:31:13;26.50;99.90
26053;DHT22;13826;51.186;4.450;2022-08-19T11:33:39;26.90;99.90
26053;DHT22;13826;51.186;4.450;2022-08-19T11:36:06;27.00;1.00
26053;DHT22;13826;51.186;4.450;2022-08-19T11:38:33;27.00;1.00
26053;DHT22;13826;51.186;4.450;2022-08-19T11:41:04;27.10;1.00
26053;DHT22;13826;51.186;4.450;2022-08-19T11:43:30;27.20;1.00
26053;DHT22;13826;51.186;4.450;2022-08-19T11:45:56;27.30;1.00
26053;DHT22;13826;51.186;4.450;2022-08-19T11:48:23;27.60;99.90
26053;DHT22;13826;51.186;4.450;2022-08-19T11:50:50;27.90;99.90
26053;DHT22;13826;51.186;4.450;2022-08-19T11:53:19;28.20;1.00
26053;DHT22;13826;51.186;4.450;2022-08-19T11:55:49;28.20;1.00
26053;DHT22;13826;51.186;4.450;2022-08-19T11:58:17;28.20;1.00
26053;DHT22;13826;51.186;4.450;2022-08-19T12:00:43;27.90;1.00
26053;DHT22;13826;51.186;4.450;2022-08-19T12:03:11;27.70;1.00
26053;DHT22;13826;51.186;4.450;2022-08-19T12:05:38;27.50;1.00
26053;DHT22;13826;51.186;4.450;2022-08-19T12:08:05;27.40;1.00
26053;DHT22;13826;51.186;4.450;2022-08-19T12:10:32;27.40;90.90
26053;DHT22;13826;51.186;4.450;2022-08-19T12:12:59;27.10;14.90
26053;DHT22;13826;51.186;4.450;2022-08-19T12:15:26;27.00;99.90
26053;DHT22;13826;51.186;4.450;2022-08-19T12:17:53;27.30;99.90
26053;DHT22;13826;51.186;4.450;2022-08-19T12:20:22;27.50;1.00
26053;DHT22;13826;51.186;4.450;2022-08-19T12:22:49;27.60;1.00
26053;DHT22;13826;51.186;4.450;2022-08-19T12:25:16;27.70;99.90
26053;DHT22;13826;51.186;4.450;2022-08-19T12:27:42;27.80;99.90
26053;DHT22;13826;51.186;4.450;2022-08-19T12:30:10;28.20;99.90
26053;DHT22;13826;51.186;4.450;2022-08-19T12:32:37;28.60;99.90
26053;DHT22;13826;51.186;4.450;2022-08-19T12:35:04;29.00;99.90
26053;DHT22;13826;51.186;4.450;2022-08-19T12:37:30;29.20;99.90
26053;DHT22;13826;51.186;4.450;2022-08-19T12:39:57;29.50;99.90
26053;DHT22;13826;51.186;4.450;2022-08-19T12:42:23;29.70;97.20
26053;DHT22;13826;51.186;4.450;2022-08-19T12:44:48;29.50;99.90
26053;DHT22;13826;51.186;4.450;2022-08-19T12:47:14;29.30;89.50
26053;DHT22;13826;51.186;4.450;2022-08-19T12:49:41;29.20;99.90
26053;DHT22;13826;51.186;4.450;2022-08-19T12:52:08;29.20;96.40
26053;DHT22;13826;51.186;4.450;2022-08-19T12:54:35;28.90;99.90
26053;DHT22;13826;51.186;4.450;2022-08-19T12:57:05;28.50;99.90
26053;DHT22;13826;51.186;4.450;2022-08-19T12:59:31;28.60;99.90
26053;DHT22;13826;51.186;4.450;2022-08-19T13:01:57;28.90;99.90
26053;DHT22;13826;51.186;4.450;2022-08-19T13:04:23;28.90;99.90
26053;DHT22;13826;51.186;4.450;2022-08-19T13:06:49;28.90;99.90
26053;DHT22;13826;51.186;4.450;2022-08-19T13:09:15;28.80;99.90
26053;DHT22;13826;51.186;4.450;2022-08-19T13:11:40;28.80;99.90
26053;DHT22;13826;51.186;4.450;2022-08-19T13:14:06;28.90;99.90
26053;DHT22;13826;51.186;4.450;2022-08-19T13:16:32;28.90;91.50
26053;DHT22;13826;51.186;4.450;2022-08-19T13:18:58;28.90;94.40
26053;DHT22;13826;51.186;4.450;2022-08-19T13:21:26;28.50;99.90
26053;DHT22;13826;51.186;4.450;2022-08-19T13:23:55;28.60;99.90
26053;DHT22;13826;51.186;4.450;2022-08-19T13:26:21;28.80;99.90
26053;DHT22;13826;51.186;4.450;2022-08-19T13:28:46;28.70;99.90
26053;DHT22;13826;51.186;4.450;2022-08-19T13:31:33;28.80;99.90
26053;DHT22;13826;51.186;4.450;2022-08-19T13:34:24;28.70;99.90
26053;DHT22;13826;51.186;4.450;2022-08-19T13:36:52;29.20;76.20
26053;DHT22;13826;51.186;4.450;2022-08-19T13:39:18;29.20;86.40
26053;DHT22;13826;51.186;4.450;2022-08-19T13:41:46;29.20;67.20
26053;DHT22;13826;51.186;4.450;2022-08-19T13:44:16;28.80;44.90
26053;DHT22;13826;51.186;4.450;2022-08-19T13:46:47;28.70;44.70
26053;DHT22;13826;51.186;4.450;2022-08-19T13:49:15;28.80;46.10
26053;DHT22;13826;51.186;4.450;2022-08-19T13:51:42;28.80;39.70
26053;DHT22;13826;51.186;4.450;2022-08-19T13:54:09;29.00;32.60
26053;DHT22;13826;51.186;4.450;2022-08-19T13:56:43;28.90;40.80
26053;DHT22;13826;51.186;4.450;2022-08-19T13:59:09;28.80;29.50
26053;DHT22;13826;51.186;4.450;2022-08-19T14:01:35;28.60;27.70
26053;DHT22;13826;51.186;4.450;2022-08-19T14:04:01;28.30;46.60
26053;DHT22;13826;51.186;4.450;2022-08-19T14:06:27;28.10;98.10
26053;DHT22;13826;51.186;4.450;2022-08-19T14:08:53;28.20;99.90
26053;DHT22;13826;51.186;4.450;2022-08-19T14:11:19;28.00;99.90
26053;DHT22;13826;51.186;4.450;2022-08-19T14:13:44;28.10;99.90
26053;DHT22;13826;51.186;4.450;2022-08-19T14:16:12;28.00;99.90
26053;DHT22;13826;51.186;4.450;2022-08-19T14:18:38;28.10;99.90
26053;DHT22;13826;51.186;4.450;2022-08-19T14:21:05;28.10;99.90
26053;DHT22;13826;51.186;4.450;2022-08-19T14:23:32;28.10;99.90
26053;DHT22;13826;51.186;4.450;2022-08-19T14:26:10;28.00;99.90
26053;DHT22;13826;51.186;4.450;2022-08-19T14:28:37;28.20;99.90
26053;DHT22;13826;51.186;4.450;2022-08-19T14:31:03;28.30;99.90
26053;DHT22;13826;51.186;4.450;2022-08-19T14:33:28;28.50;99.90
26053;DHT22;13826;51.186;4.450;2022-08-19T14:35:54;28.50;99.90
26053;DHT22;13826;51.186;4.450;2022-08-19T14:38:20;28.40;99.90
26053;DHT22;13826;51.186;4.450;2022-08-19T14:40:45;28.40;99.90
26053;DHT22;13826;51.186;4.450;2022-08-19T14:43:12;28.30;99.90
26053;DHT22;13826;51.186;4.450;2022-08-19T14:45:39;28.00;99.90
26053;DHT22;13826;51.186;4.450;2022-08-19T14:48:06;27.60;99.90
26053;DHT22;13826;51.186;4.450;2022-08-19T14:50:32;27.30;99.90
26053;DHT22;13826;51.186;4.450;2022-08-19T14:53:04;26.90;99.90
26053;DHT22;13826;51.186;4.450;2022-08-19T14:55:31;26.40;1.00
26053;DHT22;13826;51.186;4.450;2022-08-19T14:57:57;26.10;99.90
26053;DHT22;13826;51.186;4.450;2022-08-19T15:00:22;25.70;99.90
26053;DHT22;13826;51.186;4.450;2022-08-19T15:02:49;25.40;1.00
26053;DHT22;13826;51.186;4.450;2022-08-19T15:05:15;25.00;99.90
26053;DHT22;13826;51.186;4.450;2022-08-19T15:07:41;24.40;1.00
26053;DHT22;13826;51.186;4.450;2022-08-19T15:10:09;24.50;1.00
26053;DHT22;13826;51.186;4.450;2022-08-19T15:12:35;24.50;1.00
26053;DHT22;13826;51.186;4.450;2022-08-19T15:15:01;24.20;1.00
26053;DHT22;13826;51.186;4.450;2022-08-19T15:17:27;24.10;1.00
26053;DHT22;13826;51.186;4.450;2022-08-19T15:19:56;24.00;1.00
26053;DHT22;13826;51.186;4.450;2022-08-19T15:22:21;23.50;1.00
26053;DHT22;13826;51.186;4.450;2022-08-19T15:24:47;23.80;1.00
26053;DHT22;13826;51.186;4.450;2022-08-19T15:27:13;24.00;1.00
26053;DHT22;13826;51.186;4.450;2022-08-19T15:29:39;24.20;1.00
26053;DHT22;13826;51.186;4.450;2022-08-19T15:32:08;24.50;1.00
26053;DHT22;13826;51.186;4.450;2022-08-19T15:34:34;24.90;1.00
26053;DHT22;13826;51.186;4.450;2022-08-19T15:37:02;25.10;1.00
26053;DHT22;13826;51.186;4.450;2022-08-19T15:39:28;25.40;1.00
26053;DHT22;13826;51.186;4.450;2022-08-19T15:41:55;25.70;1.00
26053;DHT22;13826;51.186;4.450;2022-08-19T15:44:21;25.70;1.00
26053;DHT22;13826;51.186;4.450;2022-08-19T15:46:47;25.50;1.00
26053;DHT22;13826;51.186;4.450;2022-08-19T15:49:15;25.40;1.00
26053;DHT22;13826;51.186;4.450;2022-08-19T15:51:43;25.60;1.00
26053;DHT22;13826;51.186;4.450;2022-08-19T15:54:13;25.70;1.00